Terminal Aerodrome Forecast
Issued by NWS Memphis, TN

Home | Current Version | Previous Version | Text Only | Print | Product List | Glossary On
Versions: 1 2 3 4 5 6 7 8 9 10 11 12 13 14 15 16 17 18 19 20
000
FTUS44 KMEG 021125
TAFMKL
TAF
KMKL 021125Z 0212/0312 00000KT 5SM BR SCT015 OVC040
     FM021400 34005KT P6SM OVC025
     FM030000 36003KT P6SM SKC=

USA.gov is the U.S. government's official web portal to all federal, state and local government web resources and services.